Time;durP1;ratioP1;P1;durP2;ratioP2;P2;SDS_P1;SDS_P2;PMS_P1;PMS_P2;Temp;Humidity;BMP_temperature;BMP_pressure;BME280_temperature;BME280_humidity;BME280_pressure;Samples;Min_cycle;Max_cycle;Signal;HPM_P1;HPM_P2
2022/01/24 00:02:14;;;;;;;2.50;2.40;;;;;;;-2.12;58.63;102285.95;103563;1297;138560;-83
2022/01/24 00:04:43;;;;;;;2.50;2.40;;;;;;;-2.12;58.73;102291.50;103603;1297;99883;-83
2022/01/24 00:07:10;;;;;;;2.50;2.40;;;;;;;-2.12;58.72;102294.69;103432;1300;140188;-82
2022/01/24 00:09:38;;;;;;;2.40;2.30;;;;;;;-2.10;58.78;102297.41;103584;1297;95272;-82
2022/01/24 00:12:28;;;;;;;2.50;2.40;;;;;;;-2.05;58.47;102305.19;103587;1297;95781;-82
2022/01/24 00:15:16;;;;;;;2.40;2.30;;;;;;;-1.91;58.58;102306.46;103389;1297;138531;-83
2022/01/24 00:18:03;;;;;;;2.60;2.50;;;;;;;-1.85;58.51;102305.23;103421;1299;100080;-84
2022/01/24 00:28:31;;;;;;;2.40;2.30;;;;;;;-2.13;58.90;102321.05;103458;1299;108794;-83
2022/01/24 00:30:59;;;;;;;2.50;2.40;;;;;;;-2.00;58.86;102314.45;103356;1299;98424;-82
2022/01/24 00:33:27;;;;;;;2.50;2.40;;;;;;;-1.97;58.72;102315.52;103329;1297;138621;-82
2022/01/24 00:35:55;;;;;;;2.40;2.30;;;;;;;-1.93;58.39;102318.88;103350;1299;95214;-84
2022/01/24 00:38:22;;;;;;;2.40;2.30;;;;;;;-1.93;58.40;102320.61;103261;1299;138374;-85
2022/01/24 00:40:50;;;;;;;2.40;2.30;;;;;;;-1.93;58.37;102324.11;103377;1297;108939;-82
2022/01/24 00:46:05;;;;;;;2.70;2.60;;;;;;;-2.02;58.62;102325.33;103521;1297;107210;-83
2022/01/24 00:56:28;;;;;;;2.30;2.20;;;;;;;-1.71;57.91;102320.42;103329;1297;137869;-83
2022/01/24 00:58:56;;;;;;;2.60;2.50;;;;;;;-1.80;58.12;102310.52;103712;1297;108475;-82
2022/01/24 01:01:23;;;;;;;2.50;2.40;;;;;;;-1.97;58.48;102309.09;103474;1297;138759;-82
2022/01/24 01:03:51;;;;;;;2.20;2.10;;;;;;;-2.06;58.85;102308.04;103510;1297;95301;-84
2022/01/24 01:06:19;;;;;;;2.40;2.30;;;;;;;-2.12;58.96;102310.50;103481;1297;108267;-83
2022/01/24 01:19:59;;;;;;;2.00;2.00;;;;;;;-2.31;59.38;102302.66;103529;1297;138974;-83
2022/01/24 01:22:27;;;;;;;2.30;2.20;;;;;;;-2.31;59.32;102301.93;103507;1295;98458;-83
2022/01/24 01:24:56;;;;;;;2.50;2.40;;;;;;;-2.43;59.31;102300.77;103535;1297;106934;-82
2022/01/24 01:27:31;;;;;;;2.80;2.70;;;;;;;-2.55;59.90;102301.30;103257;1299;138739;-83
2022/01/24 01:30:09;;;;;;;2.40;2.30;;;;;;;-2.55;59.94;102306.17;103466;1297;95786;-83
2022/01/24 01:33:02;;;;;;;2.50;2.40;;;;;;;-2.54;60.12;102304.33;103384;1297;139188;-83
2022/01/24 01:52:17;;;;;;;2.70;2.60;;;;;;;-2.44;60.44;102302.25;103389;1297;95714;-82
2022/01/24 01:56:50;;;;;;;2.50;2.40;;;;;;;-2.23;60.41;102300.48;103385;1297;139806;-85
2022/01/24 01:59:18;;;;;;;2.40;2.30;;;;;;;-2.14;60.01;102299.05;103571;1297;107633;-83
2022/01/24 02:01:46;;;;;;;2.40;2.30;;;;;;;-2.11;59.97;102302.54;103421;1297;137674;-82
2022/01/24 02:04:15;;;;;;;2.40;2.30;;;;;;;-2.07;59.82;102298.81;103622;1297;107377;-82
2022/01/24 02:06:43;;;;;;;3.10;3.00;;;;;;;-2.09;59.91;102302.15;103402;1297;95751;-83
2022/01/24 02:09:13;;;;;;;2.50;2.40;;;;;;;-2.08;60.11;102305.88;103434;1297;139337;-85
2022/01/24 02:11:41;;;;;;;2.20;2.10;;;;;;;-2.13;60.31;102301.36;103533;1296;108718;-82
2022/01/24 02:14:14;;;;;;;2.40;2.30;;;;;;;-2.18;60.19;102310.02;103337;1297;138840;-83
2022/01/24 02:16:56;;;;;;;2.30;2.20;;;;;;;-2.23;60.24;102312.68;103537;1297;107053;-83
2022/01/24 02:24:37;;;;;;;2.20;2.10;;;;;;;-2.05;60.51;102303.73;103599;1297;108869;-83
2022/01/24 02:27:07;;;;;;;2.40;2.30;;;;;;;-1.98;60.04;102308.30;103519;1297;138595;-83
2022/01/24 02:30:10;;;;;;;2.30;2.20;;;;;;;-2.00;60.06;102307.50;103506;1297;108387;-83
2022/01/24 02:32:27;;;;;;;2.50;2.40;;;;;;;-2.01;60.28;102308.67;103188;1297;139402;-83
2022/01/24 02:34:54;;;;;;;2.40;2.30;;;;;;;-2.02;60.23;102303.22;103445;1297;95122;-83
2022/01/24 02:37:23;;;;;;;2.30;2.20;;;;;;;-1.93;59.97;102309.48;103362;1297;138909;-83
2022/01/24 02:40:14;;;;;;;2.40;2.30;;;;;;;-1.91;59.83;102302.79;103458;1297;100595;-83
2022/01/24 02:48:23;;;;;;;2.30;2.20;;;;;;;-1.84;60.10;102300.07;103075;1303;139531;-83
2022/01/24 02:48:51;;;;;;;2.30;2.20;;;;;;;-1.74;60.06;102299.04;103602;1297;95153;-83
2022/01/24 02:51:37;;;;;;;2.20;2.10;;;;;;;-1.63;59.40;102298.39;103468;1297;138795;-83
2022/01/24 02:54:19;;;;;;;2.20;2.10;;;;;;;-1.51;58.96;102304.25;103561;1296;96152;-84
2022/01/24 02:56:47;;;;;;;2.40;2.30;;;;;;;-1.56;59.11;102304.52;103294;1297;137389;-83
2022/01/24 02:59:15;;;;;;;2.40;2.30;;;;;;;-1.50;59.18;102301.71;103708;1297;95768;-83
2022/01/24 03:01:44;;;;;;;2.50;2.40;;;;;;;-1.39;59.23;102304.55;103493;1297;139292;-84
2022/01/24 03:04:14;;;;;;;2.10;2.00;;;;;;;-1.39;58.95;102306.48;103375;1297;107938;-86
2022/01/24 03:06:41;;;;;;;2.10;2.10;;;;;;;-1.40;58.98;102305.55;103552;1297;99364;-83
2022/01/24 03:09:10;;;;;;;2.20;2.10;;;;;;;-1.40;58.73;102312.54;103201;1297;138268;-80
2022/01/24 03:14:39;;;;;;;2.40;2.30;;;;;;;-1.54;59.32;102304.13;103145;1297;138718;-83
2022/01/24 03:17:07;;;;;;;2.20;2.10;;;;;;;-1.56;59.28;102305.92;103468;1296;108729;-83
2022/01/24 03:19:35;;;;;;;2.30;2.20;;;;;;;-1.56;59.29;102304.70;103418;1297;140767;-84
2022/01/24 03:22:03;;;;;;;2.00;2.00;;;;;;;-1.63;59.30;102300.83;103460;1296;108494;-83
2022/01/24 03:24:31;;;;;;;2.10;2.10;;;;;;;-1.70;59.81;102296.62;103392;1297;96125;-82
2022/01/24 03:26:59;;;;;;;2.20;2.10;;;;;;;-1.72;59.89;102300.52;103467;1297;139082;-85
2022/01/24 03:29:27;;;;;;;2.30;2.20;;;;;;;-1.66;60.48;102303.09;103384;1297;210084;-83
2022/01/24 03:31:54;;;;;;;2.20;2.10;;;;;;;-1.55;60.18;102304.23;103363;1297;139471;-83
2022/01/24 03:34:22;;;;;;;2.10;2.10;;;;;;;-1.43;60.19;102304.33;103583;1297;106598;-83
2022/01/24 03:36:50;;;;;;;2.20;2.10;;;;;;;-1.38;59.65;102301.49;103600;1297;95282;-84
2022/01/24 03:39:18;;;;;;;2.00;2.00;;;;;;;-1.40;59.54;102300.16;103384;1298;138476;-83
2022/01/24 03:41:46;;;;;;;2.20;2.10;;;;;;;-1.35;59.15;102302.89;103445;1296;108333;-83
2022/01/24 03:44:15;;;;;;;2.30;2.20;;;;;;;-1.32;59.32;102304.20;103408;1297;139525;-82
2022/01/24 03:46:49;;;;;;;2.30;2.20;;;;;;;-1.26;59.44;102300.17;103572;1297;108491;-83
2022/01/24 03:52:05;;;;;;;2.20;2.10;;;;;;;-1.13;58.50;102292.14;103509;1297;139423;-83
2022/01/24 03:54:32;;;;;;;2.30;2.20;;;;;;;-1.22;58.23;102290.14;103597;1297;107872;-83
2022/01/24 03:57:00;;;;;;;2.20;2.10;;;;;;;-1.28;58.65;102294.68;103450;1297;139563;-83
2022/01/24 03:59:31;;;;;;;2.20;2.10;;;;;;;-1.35;58.57;102291.20;103519;1297;109485;-83
2022/01/24 04:02:00;;;;;;;2.20;2.10;;;;;;;-1.30;58.23;102292.48;103310;1297;139271;-83
2022/01/24 04:04:30;;;;;;;2.20;2.10;;;;;;;-1.26;58.60;102297.58;103657;1297;95173;-84
2022/01/24 04:06:59;;;;;;;2.20;2.10;;;;;;;-1.20;58.35;102295.48;103533;1297;108283;-85
2022/01/24 04:09:27;;;;;;;2.00;2.00;;;;;;;-1.23;58.67;102294.41;103247;1297;138231;-83
2022/01/24 04:11:57;;;;;;;2.20;2.10;;;;;;;-1.28;58.36;102297.98;103330;1299;107805;-84
2022/01/24 04:17:07;;;;;;;2.20;2.10;;;;;;;-1.28;59.03;102296.09;103419;1299;95376;-84
2022/01/24 04:22:31;;;;;;;2.10;2.00;;;;;;;-1.06;58.37;102298.09;103399;1297;140050;-84
2022/01/24 04:25:00;;;;;;;2.20;2.10;;;;;;;-1.05;58.36;102300.08;103495;1297;109784;-84
2022/01/24 04:27:28;;;;;;;2.30;2.20;;;;;;;-1.08;58.15;102303.90;103359;1297;138409;-85
2022/01/24 04:29:56;;;;;;;2.20;2.10;;;;;;;-1.08;58.47;102303.53;103581;1297;95172;-83
2022/01/24 04:32:24;;;;;;;2.20;2.10;;;;;;;-1.07;58.35;102299.44;103445;1296;140251;-85
2022/01/24 04:34:52;;;;;;;2.00;2.00;;;;;;;-1.03;58.59;102300.02;103505;1297;98428;-85
2022/01/24 04:37:20;;;;;;;2.00;2.00;;;;;;;-1.02;58.20;102302.13;103333;1297;108306;-81
2022/01/24 04:39:48;;;;;;;2.30;2.20;;;;;;;-1.06;58.08;102302.78;103234;1297;138659;-85
2022/01/24 04:42:27;;;;;;;2.10;2.10;;;;;;;-1.08;58.23;102306.87;103557;1297;95684;-89
2022/01/24 04:53:48;;;;;;;2.00;2.00;;;;;;;-1.22;58.19;102313.83;103604;1295;95271;-83
2022/01/24 04:56:16;;;;;;;2.20;2.10;;;;;;;-1.25;58.72;102309.31;103476;1296;138428;-86
2022/01/24 04:58:44;;;;;;;2.20;2.10;;;;;;;-1.35;58.76;102303.73;103633;1297;110165;-84
2022/01/24 05:01:13;;;;;;;2.20;2.10;;;;;;;-1.35;59.14;102304.92;103819;1297;97096;-83
2022/01/24 05:03:41;;;;;;;2.00;2.00;;;;;;;-1.29;59.01;102315.36;103459;1297;140305;-85
2022/01/24 05:06:15;;;;;;;1.90;1.90;;;;;;;-1.19;59.03;102318.16;103500;1297;95832;-84
2022/01/24 05:08:43;;;;;;;1.80;1.80;;;;;;;-1.20;58.76;102312.02;103442;1297;138799;-83
2022/01/24 05:11:15;;;;;;;2.30;2.20;;;;;;;-1.18;58.97;102318.70;103463;1296;108903;-83
2022/01/24 05:24:36;;;;;;;2.00;2.00;;;;;;;-1.25;59.35;102323.59;103244;1297;107375;-83
2022/01/24 05:27:04;;;;;;;1.80;1.80;;;;;;;-1.31;59.12;102327.98;103494;1297;137961;-84
2022/01/24 05:29:36;;;;;;;2.10;2.10;;;;;;;-1.39;59.64;102324.06;103420;1299;108349;-82
2022/01/24 05:32:05;;;;;;;2.30;2.20;;;;;;;-1.49;59.65;102322.51;103707;1297;95704;-83
2022/01/24 05:34:33;;;;;;;1.90;1.90;;;;;;;-1.53;59.83;102321.76;103604;1297;138447;-83
2022/01/24 05:37:01;;;;;;;1.80;1.80;;;;;;;-1.52;60.04;102320.04;103540;1299;110697;-82
2022/01/24 05:39:28;;;;;;;2.00;2.00;;;;;;;-1.54;59.99;102327.25;103274;1297;138806;-82
2022/01/24 05:41:56;;;;;;;1.90;1.90;;;;;;;-1.69;60.59;102328.88;103420;1297;107790;-84
2022/01/24 05:44:24;;;;;;;2.20;2.10;;;;;;;-1.81;60.79;102332.77;103327;1297;139220;-83
2022/01/24 05:46:52;;;;;;;2.00;2.00;;;;;;;-1.85;61.30;102332.54;103443;1297;96246;-83
2022/01/24 05:49:20;;;;;;;2.00;2.00;;;;;;;-1.78;61.15;102336.02;103493;1297;108708;-83
2022/01/24 05:51:48;;;;;;;2.00;2.00;;;;;;;-1.74;61.07;102338.02;103419;1297;138262;-84
2022/01/24 05:54:15;;;;;;;2.10;2.00;;;;;;;-1.73;60.61;102345.39;103445;1297;109328;-83
2022/01/24 05:56:43;;;;;;;2.00;2.00;;;;;;;-1.80;61.05;102343.27;103409;1297;138365;-83
2022/01/24 05:59:11;;;;;;;2.20;2.10;;;;;;;-1.81;61.03;102348.64;103425;1297;95360;-83
2022/01/24 06:01:39;;;;;;;2.40;2.30;;;;;;;-1.70;61.06;102349.41;103469;1297;109556;-83
2022/01/24 06:04:06;;;;;;;1.90;1.90;;;;;;;-1.71;60.84;102350.59;103431;1297;139585;-82
2022/01/24 06:06:34;;;;;;;2.50;2.40;;;;;;;-1.71;60.51;102348.31;103532;1297;107789;-89
2022/01/24 06:09:02;;;;;;;2.20;2.10;;;;;;;-1.70;61.05;102351.67;103352;1297;139703;-83
2022/01/24 06:11:30;;;;;;;2.40;2.30;;;;;;;-1.72;60.94;102354.00;103486;1298;95055;-83
2022/01/24 06:14:02;;;;;;;2.30;2.20;;;;;;;-1.64;60.58;102353.55;103559;1297;108759;-82
2022/01/24 06:16:30;;;;;;;1.90;1.90;;;;;;;-1.70;60.43;102347.51;103467;1297;138790;-86
2022/01/24 06:18:59;;;;;;;2.00;2.00;;;;;;;-1.72;60.11;102351.36;103628;1297;106648;-85
2022/01/24 06:21:27;;;;;;;2.20;2.10;;;;;;;-1.81;60.60;102348.10;103321;1299;140258;-83
2022/01/24 06:23:55;;;;;;;2.40;2.30;;;;;;;-1.90;60.64;102346.39;103551;1299;95536;-83
2022/01/24 06:26:23;;;;;;;2.30;2.20;;;;;;;-1.89;61.03;102344.49;103098;1299;139130;-82
2022/01/24 06:28:51;;;;;;;2.20;2.10;;;;;;;-1.87;60.84;102339.26;103412;1297;100633;-82
2022/01/24 06:31:20;;;;;;;1.90;1.90;;;;;;;-1.91;60.85;102336.25;103476;1297;107914;-84
2022/01/24 06:33:48;;;;;;;2.40;2.30;;;;;;;-1.89;61.38;102335.83;103241;1299;139044;-83
2022/01/24 06:36:16;;;;;;;2.20;2.10;;;;;;;-1.81;60.83;102338.15;103481;1299;95801;-84
2022/01/24 06:38:44;;;;;;;2.30;2.20;;;;;;;-1.76;61.22;102338.08;103206;1299;138448;-82
2022/01/24 06:41:19;;;;;;;2.30;2.20;;;;;;;-1.73;60.85;102335.11;103476;1298;99429;-82
2022/01/24 06:43:47;;;;;;;2.10;2.00;;;;;;;-1.80;60.45;102331.09;103428;1299;108592;-84
2022/01/24 06:46:17;;;;;;;1.90;1.90;;;;;;;-1.86;60.59;102336.34;103301;1299;138523;-85
2022/01/24 06:48:45;;;;;;;2.30;2.20;;;;;;;-1.88;61.01;102340.25;103541;1298;94816;-80
2022/01/24 06:51:13;;;;;;;2.30;2.20;;;;;;;-1.89;61.09;102337.72;103342;1300;138375;-82
2022/01/24 06:53:41;;;;;;;2.10;2.10;;;;;;;-1.78;61.06;102340.06;103710;1294;98546;-83
2022/01/24 06:56:09;;;;;;;2.20;2.10;;;;;;;-1.73;60.61;102338.42;103548;1297;139096;-83
2022/01/24 06:58:37;;;;;;;2.30;2.20;;;;;;;-1.68;60.69;102336.27;103433;1299;95357;-83
2022/01/24 07:01:05;;;;;;;2.30;2.20;;;;;;;-1.69;60.76;102342.68;104018;1297;95247;-82
2022/01/24 07:03:34;;;;;;;2.20;2.10;;;;;;;-1.76;60.59;102345.23;103393;1297;138720;-84
2022/01/24 07:06:02;;;;;;;2.30;2.20;;;;;;;-1.76;61.15;102347.11;103511;1300;100077;-83
2022/01/24 07:08:30;;;;;;;2.20;2.10;;;;;;;-1.74;60.88;102350.57;103411;1297;139545;-83
2022/01/24 07:10:59;;;;;;;2.30;2.20;;;;;;;-1.74;60.58;102351.09;103406;1298;96274;-82
2022/01/24 07:13:27;;;;;;;2.20;2.10;;;;;;;-1.72;60.70;102353.62;103329;1297;95303;-82
2022/01/24 07:16:02;;;;;;;2.10;2.00;;;;;;;-1.77;60.96;102352.48;103379;1297;138405;-86
2022/01/24 07:21:00;;;;;;;2.20;2.10;;;;;;;-1.75;60.83;102353.48;103394;1297;138188;-85
2022/01/24 07:23:28;;;;;;;2.30;2.20;;;;;;;-1.70;61.03;102351.11;103344;1297;95303;-84
2022/01/24 07:26:01;;;;;;;2.10;2.00;;;;;;;-1.58;61.27;102349.02;103399;1297;95199;-84
2022/01/24 07:28:29;;;;;;;2.20;2.10;;;;;;;-1.58;60.29;102348.66;103324;1299;139671;-85
2022/01/24 07:30:58;;;;;;;2.40;2.30;;;;;;;-1.60;60.93;102348.52;103571;1297;98466;-84
2022/01/24 07:33:28;;;;;;;2.80;2.70;;;;;;;-1.58;60.86;102349.35;103426;1299;138990;-84
2022/01/24 07:35:59;;;;;;;2.30;2.20;;;;;;;-1.52;60.59;102353.70;103497;1298;95170;-82
2022/01/24 07:38:26;;;;;;;2.20;2.10;;;;;;;-1.53;60.63;102359.54;103440;1297;139720;-82
2022/01/24 07:40:57;;;;;;;2.30;2.20;;;;;;;-1.57;60.79;102364.41;103537;1299;109303;-81
2022/01/24 07:43:25;;;;;;;2.30;2.20;;;;;;;-1.58;60.91;102364.54;103480;1299;97303;-83
2022/01/24 07:45:53;;;;;;;2.30;2.20;;;;;;;-1.55;61.02;102365.73;103431;1297;137847;-83
2022/01/24 07:48:21;;;;;;;2.00;2.00;;;;;;;-1.45;60.94;102369.20;103681;1299;95275;-82
2022/01/24 07:50:51;;;;;;;2.00;2.00;;;;;;;-1.40;60.74;102363.77;103742;1299;139757;-84
2022/01/24 07:53:22;;;;;;;2.00;2.00;;;;;;;-1.34;60.72;102364.41;103398;1299;111086;-84
2022/01/24 07:56:09;;;;;;;2.00;2.00;;;;;;;-1.35;60.45;102361.59;103650;1298;98884;-84
2022/01/24 07:58:37;;;;;;;2.10;2.00;;;;;;;-1.30;60.69;102363.90;103427;1299;139759;-85
2022/01/24 08:01:05;;;;;;;2.10;2.00;;;;;;;-1.22;60.46;102367.84;103602;1298;95300;-85
2022/01/24 08:03:33;;;;;;;1.90;1.90;;;;;;;-1.13;60.22;102364.98;103849;1296;137588;-84
2022/01/24 08:06:01;;;;;;;2.10;2.00;;;;;;;-1.14;60.20;102365.83;103846;1297;107528;-85
2022/01/24 08:08:29;;;;;;;2.00;2.00;;;;;;;-1.14;60.30;102363.38;103608;1297;137696;-85
2022/01/24 08:10:59;;;;;;;2.00;2.00;;;;;;;-1.17;60.07;102356.09;103490;1297;109319;-85
2022/01/24 08:13:28;;;;;;;2.30;2.20;;;;;;;-1.15;60.45;102353.77;103659;1297;95211;-84
2022/01/24 08:15:56;;;;;;;1.90;1.90;;;;;;;-1.12;60.16;102351.98;103590;1296;138377;-82
2022/01/24 08:18:24;;;;;;;1.90;1.90;;;;;;;-1.04;60.53;102356.25;103539;1299;108781;-84
2022/01/24 08:20:51;;;;;;;1.80;1.80;;;;;;;-1.01;59.50;102354.34;103535;1297;139388;-84
2022/01/24 08:23:21;;;;;;;1.90;1.90;;;;;;;-1.02;59.59;102347.66;103812;1297;107503;-84
2022/01/24 08:25:55;;;;;;;2.00;2.00;;;;;;;-1.02;59.78;102344.52;104036;1297;95617;-85
2022/01/24 08:28:24;;;;;;;2.40;2.30;;;;;;;-0.98;59.70;102345.04;103894;1297;137493;-83
2022/01/24 08:30:52;;;;;;;1.90;1.90;;;;;;;-0.93;59.57;102345.48;103871;1297;108499;-84
2022/01/24 08:33:21;;;;;;;1.80;1.80;;;;;;;-0.86;59.34;102345.16;103724;1299;139235;-84
2022/01/24 08:35:51;;;;;;;1.80;1.80;;;;;;;-0.80;59.60;102348.58;103938;1297;107906;-85
2022/01/24 08:38:21;;;;;;;1.90;1.90;;;;;;;-0.76;59.25;102351.42;103694;1297;138914;-83
2022/01/24 08:40:53;;;;;;;2.00;2.00;;;;;;;-0.76;59.22;102352.80;103972;1297;95346;-82
2022/01/24 08:43:38;;;;;;;2.20;2.10;;;;;;;-0.76;58.96;102352.79;103988;1297;107497;-83
2022/01/24 08:46:09;;;;;;;2.00;2.00;;;;;;;-0.77;59.15;102351.53;103768;1297;139062;-85
2022/01/24 08:48:37;;;;;;;1.80;1.80;;;;;;;-0.70;58.99;102353.63;103845;1297;107542;-84
2022/01/24 08:51:05;;;;;;;1.80;1.80;;;;;;;-0.65;59.10;102356.31;103801;1296;137623;-83
2022/01/24 08:53:34;;;;;;;1.90;1.90;;;;;;;-0.61;58.93;102350.60;104030;1296;95248;-88
2022/01/24 08:56:06;;;;;;;2.00;2.00;;;;;;;-0.60;59.25;102344.73;103834;1297;107044;-85
2022/01/24 08:58:35;;;;;;;1.90;1.90;;;;;;;-0.58;59.01;102342.40;103781;1297;137866;-86
2022/01/24 09:01:03;;;;;;;1.90;1.90;;;;;;;-0.53;59.24;102342.98;103987;1297;106178;-85
2022/01/24 09:03:39;;;;;;;1.80;1.80;;;;;;;-0.49;58.53;102342.11;103984;1296;139904;-87
2022/01/24 09:06:08;;;;;;;1.90;1.90;;;;;;;-0.46;58.37;102342.09;103900;1297;95285;-84
2022/01/24 09:08:37;;;;;;;1.90;1.90;;;;;;;-0.45;58.12;102340.39;103971;1299;138666;-85
2022/01/24 09:11:06;;;;;;;2.10;2.00;;;;;;;-0.41;58.70;102334.33;104099;1299;98506;-86
2022/01/24 09:13:38;;;;;;;1.70;1.70;;;;;;;-0.33;58.49;102338.40;103972;1299;107841;-84
2022/01/24 09:16:07;;;;;;;1.70;1.70;;;;;;;-0.28;58.46;102335.69;103769;1299;138594;-83
2022/01/24 09:18:35;;;;;;;2.00;2.00;;;;;;;-0.29;58.42;102337.19;103909;1299;95205;-84
2022/01/24 09:21:03;;;;;;;2.00;2.00;;;;;;;-0.23;58.65;102339.06;103987;1297;138426;-84
2022/01/24 09:23:31;;;;;;;1.80;1.80;;;;;;;-0.10;58.33;102337.58;104031;1297;99854;-84
2022/01/24 09:26:00;;;;;;;1.80;1.80;;;;;;;-0.04;58.18;102331.11;104271;1297;108486;-85
2022/01/24 09:28:29;;;;;;;1.60;1.60;;;;;;;0.02;57.86;102331.00;103867;1299;137183;-84
2022/01/24 09:30:57;;;;;;;1.70;1.70;;;;;;;0.04;57.98;102330.95;104159;1297;95770;-85
2022/01/24 09:33:27;;;;;;;1.70;1.70;;;;;;;0.03;57.55;102330.54;103931;1297;137971;-83
2022/01/24 09:35:59;;;;;;;1.80;1.80;;;;;;;-0.03;57.50;102336.20;103905;1297;98462;-85
2022/01/24 09:38:31;;;;;;;1.90;1.90;;;;;;;-0.05;57.53;102329.63;104020;1297;138114;-84
2022/01/24 09:41:03;;;;;;;1.90;1.90;;;;;;;-0.01;57.77;102333.30;104148;1297;95056;-84
2022/01/24 09:43:32;;;;;;;1.50;1.50;;;;;;;0.08;57.60;102329.70;104026;1300;95890;-85
2022/01/24 09:46:02;;;;;;;1.80;1.80;;;;;;;0.10;57.29;102327.39;103902;1297;138303;-84
2022/01/24 09:48:30;;;;;;;1.70;1.70;;;;;;;0.11;57.29;102330.05;104195;1297;98525;-84
2022/01/24 09:51:00;;;;;;;1.70;1.70;;;;;;;0.16;57.65;102325.23;104074;1298;137413;-84
2022/01/24 09:53:30;;;;;;;1.70;1.70;;;;;;;0.29;57.65;102321.80;104282;1297;95240;-83
2022/01/24 09:56:04;;;;;;;1.80;1.80;;;;;;;0.33;57.21;102317.64;104107;1297;95181;-84
2022/01/24 09:58:34;;;;;;;1.80;1.80;;;;;;;0.28;56.60;102320.20;104149;1298;138149;-85
2022/01/24 10:01:07;;;;;;;1.80;1.80;;;;;;;0.24;56.78;102324.55;104203;1297;98042;-87
2022/01/24 10:03:37;;;;;;;1.80;1.80;;;;;;;0.22;57.26;102322.31;104343;1297;138224;-84
2022/01/24 10:06:12;;;;;;;1.70;1.70;;;;;;;0.36;57.20;102321.79;104046;1298;94338;-86
2022/01/24 10:08:40;;;;;;;1.70;1.70;;;;;;;0.40;56.70;102320.73;104156;1298;137645;-86
2022/01/24 10:11:08;;;;;;;1.70;1.70;;;;;;;0.46;56.65;102319.60;104301;1297;109316;-86
2022/01/24 10:18:59;;;;;;;1.70;1.70;;;;;;;0.50;56.27;102306.51;104390;1297;94972;-84
2022/01/24 10:21:54;;;;;;;1.70;1.70;;;;;;;0.52;56.24;102307.48;104078;1297;137136;-84
2022/01/24 10:24:40;;;;;;;1.70;1.70;;;;;;;0.48;55.96;102310.63;104272;1297;109679;-85
2022/01/24 10:27:19;;;;;;;1.80;1.80;;;;;;;0.43;56.03;102308.98;104380;1297;137396;-84
2022/01/24 10:29:59;;;;;;;1.80;1.80;;;;;;;0.40;56.25;102300.98;104170;1298;109662;-83
2022/01/24 10:32:34;;;;;;;1.90;1.90;;;;;;;0.44;56.62;102297.70;104254;1299;138849;-85
2022/01/24 10:35:24;;;;;;;1.70;1.70;;;;;;;0.58;56.69;102293.41;104455;1298;95360;-84
2022/01/24 10:38:13;;;;;;;1.70;1.70;;;;;;;0.68;56.19;102291.05;104531;1297;107567;-85
2022/01/24 10:40:51;;;;;;;1.60;1.60;;;;;;;0.77;55.87;102288.65;104320;1299;137476;-84
2022/01/24 10:43:27;;;;;;;1.50;1.50;;;;;;;0.81;56.07;102288.52;104448;1298;106572;-85
2022/01/24 10:45:58;;;;;;;1.60;1.60;;;;;;;0.98;56.02;102283.63;104302;1299;139164;-87
2022/01/24 10:48:33;;;;;;;1.50;1.50;;;;;;;1.08;55.72;102287.05;104503;1299;95283;-85
2022/01/24 10:51:07;;;;;;;1.50;1.50;;;;;;;1.10;55.14;102282.42;104245;1299;138221;-86
2022/01/24 10:53:54;;;;;;;1.50;1.50;;;;;;;1.03;55.20;102282.11;104418;1299;97871;-86
2022/01/24 10:56:44;;;;;;;1.50;1.50;;;;;;;1.10;55.72;102275.94;104295;1299;107908;-86
2022/01/24 10:59:14;;;;;;;1.60;1.60;;;;;;;1.11;55.15;102275.45;104339;1297;95255;-85
2022/01/24 11:01:58;;;;;;;1.50;1.50;;;;;;;1.09;55.36;102273.80;104558;1297;95252;-84
2022/01/24 11:04:26;;;;;;;1.60;1.60;;;;;;;1.05;55.30;102271.52;104326;1297;137217;-84
2022/01/24 11:06:58;;;;;;;1.60;1.60;;;;;;;1.04;55.56;102268.83;104324;1299;98968;-87
2022/01/24 11:09:36;;;;;;;1.60;1.60;;;;;;;1.04;55.31;102266.23;104181;1298;137745;-85
2022/01/24 11:12:12;;;;;;;1.60;1.60;;;;;;;1.06;55.50;102260.72;104517;1297;94395;-84
2022/01/24 11:14:44;;;;;;;1.50;1.50;;;;;;;1.12;55.35;102257.48;104464;1297;95253;-85
2022/01/24 11:17:21;;;;;;;1.60;1.60;;;;;;;1.15;54.95;102250.27;104381;1299;137199;-87
2022/01/24 11:20:02;;;;;;;1.60;1.60;;;;;;;1.22;55.37;102244.42;104626;1299;98098;-85
2022/01/24 11:22:42;;;;;;;1.50;1.50;;;;;;;1.29;54.83;102241.54;104134;1299;138201;-85
2022/01/24 11:25:18;;;;;;;1.50;1.50;;;;;;;1.28;54.73;102241.52;104361;1300;95271;-83
2022/01/24 11:27:48;;;;;;;1.40;1.40;;;;;;;1.29;54.57;102237.70;104503;1297;137824;-85
2022/01/24 11:30:27;;;;;;;1.50;1.50;;;;;;;1.30;54.92;102227.11;104438;1298;108421;-84
2022/01/24 11:33:04;;;;;;;1.40;1.40;;;;;;;1.34;54.64;102218.34;104196;1297;138992;-85
2022/01/24 11:35:40;;;;;;;1.70;1.70;;;;;;;1.33;54.68;102210.23;104532;1297;106522;-84
2022/01/24 11:38:32;;;;;;;1.50;1.50;;;;;;;1.31;54.67;102212.09;104898;1297;93658;-85
2022/01/24 11:41:21;;;;;;;1.60;1.60;;;;;;;1.40;54.94;102210.15;104530;1298;138637;-87
2022/01/24 11:43:55;;;;;;;1.50;1.50;;;;;;;1.44;54.63;102208.02;104750;1298;109447;-85
2022/01/24 11:46:30;;;;;;;1.50;1.50;;;;;;;1.47;54.77;102212.71;104503;1298;137610;-85
2022/01/24 11:49:34;;;;;;;1.60;1.60;;;;;;;1.46;54.67;102218.98;104648;1299;106976;-84
2022/01/24 11:52:13;;;;;;;1.60;1.60;;;;;;;1.46;54.79;102208.48;104641;1299;137690;-85
2022/01/24 11:57:50;;;;;;;1.60;1.60;;;;;;;1.53;54.87;102207.17;104567;1298;137403;-86
2022/01/24 12:00:29;;;;;;;1.50;1.50;;;;;;;1.62;55.04;102207.35;104894;1296;98456;-85
2022/01/24 12:03:23;;;;;;;1.50;1.50;;;;;;;1.72;54.77;102207.39;104851;1296;137751;-86
2022/01/24 12:05:58;;;;;;;1.60;1.60;;;;;;;1.76;54.73;102201.61;104804;1297;95341;-84
2022/01/24 12:08:47;;;;;;;1.50;1.50;;;;;;;1.79;54.51;102195.42;104750;1297;95186;-84
2022/01/24 12:11:20;;;;;;;1.50;1.50;;;;;;;1.79;54.76;102192.77;104710;1296;137931;-84
2022/01/24 12:14:01;;;;;;;1.40;1.40;;;;;;;1.75;54.79;102194.04;104768;1297;97332;-83
2022/01/24 12:16:35;;;;;;;1.40;1.40;;;;;;;1.75;55.00;102191.61;104578;1297;138948;-85
2022/01/24 12:19:07;;;;;;;1.60;1.60;;;;;;;1.77;54.91;102190.27;104821;1297;95223;-83
2022/01/24 12:21:37;;;;;;;1.30;1.30;;;;;;;1.77;55.22;102190.80;104709;1297;138563;-84
2022/01/24 12:24:11;;;;;;;1.40;1.40;;;;;;;1.79;55.18;102191.73;104691;1298;107819;-84
2022/01/24 12:26:49;;;;;;;1.50;1.50;;;;;;;1.86;55.48;102190.08;104646;1297;98943;-83
2022/01/24 12:29:24;;;;;;;1.50;1.50;;;;;;;1.88;55.08;102185.05;104421;1299;137815;-87
2022/01/24 12:32:21;;;;;;;1.40;1.40;;;;;;;1.88;55.25;102182.23;104716;1297;94177;-86
2022/01/24 12:34:51;;;;;;;1.50;1.50;;;;;;;1.93;55.17;102185.42;104449;1299;137379;-86
2022/01/24 12:37:30;;;;;;;1.50;1.50;;;;;;;1.87;55.48;102175.76;104638;1297;109224;-86
2022/01/24 12:40:07;;;;;;;1.50;1.50;;;;;;;1.94;55.46;102181.98;104544;1297;138480;-84
2022/01/24 12:48:16;;;;;;;1.50;1.50;;;;;;;1.90;55.46;102172.70;104561;1299;94574;-84
2022/01/24 12:50:51;;;;;;;1.50;1.50;;;;;;;1.87;55.84;102165.21;104594;1298;110204;-87
2022/01/24 12:53:20;;;;;;;1.50;1.50;;;;;;;1.87;55.95;102168.75;104402;1297;138200;-84
2022/01/24 12:56:00;;;;;;;1.40;1.40;;;;;;;1.88;56.37;102172.13;104694;1297;108674;-84
2022/01/24 12:58:36;;;;;;;1.60;1.60;;;;;;;1.90;56.02;102171.50;104623;1297;137231;-86
2022/01/24 13:01:29;;;;;;;1.30;1.30;;;;;;;1.91;56.04;102172.40;104757;1297;95632;-86
2022/01/24 13:04:12;;;;;;;1.40;1.40;;;;;;;1.98;56.19;102164.78;104820;1298;137185;-84
2022/01/24 13:06:46;;;;;;;1.40;1.40;;;;;;;2.02;56.00;102166.85;104708;1298;99277;-85
2022/01/24 13:09:15;;;;;;;1.30;1.30;;;;;;;1.96;56.03;102161.72;104608;1297;138449;-85
2022/01/24 13:11:48;;;;;;;1.50;1.50;;;;;;;1.97;56.24;102157.56;104593;1299;95079;-84
2022/01/24 13:21:00;;;;;;;1.30;1.30;;;;;;;2.17;55.89;102153.59;104607;1297;98037;-86
2022/01/24 13:22:50;;;;;;;1.40;1.40;;;;;;;2.12;55.87;102160.05;104434;1297;136734;-82
2022/01/24 13:25:28;;;;;;;1.40;1.40;;;;;;;2.05;56.00;102158.02;104478;1297;95217;-85
2022/01/24 13:28:09;;;;;;;1.50;1.50;;;;;;;1.99;56.23;102156.23;104703;1297;137172;-84